Last 24 Hours

OV-Siberia 8700'

Hourly Data | America/Los_Angeles
as of 6/24/24 8:38 PM PDT
Date & Time Temp (°F) RH (%) Dew Pt (°F) Wet Bulb (°F) Wind Dir (°) Wind Spd (mph) Wind Gust (mph) WindChill (°F) Daily Min Temp (°F) Daily Max Temp (°F)
6/24/24 - 2000 58.3 47 38.2 47.2 SSW | 206 25.3 36.9 59.2 54.0 64.7
6/24/24 - 1900 60.7 49 41.4 49.6 SSW | 204 32.5 48.1 60.5 54.0 64.7
6/24/24 - 1800 60.7 51 42.7 50.2 SSW | 197 32.3 48.2 62.2 54.0 64.7
6/24/24 - 1700 61.7 46 40.6 49.7 SSW | 199 34.9 48.6 62.2 54.0 64.7
6/24/24 - 1600 61.4 52 43.6 50.9 SSW | 202 38.0 53.0 62.1 54.0 64.7
6/24/24 - 1500 62.1 57 46.9 52.8 SSW | 204 37.9 54.0 62.1 54.0 64.7
6/24/24 - 1400 62.9 55 46.7 53.0 SSW | 209 41.9 61.4 61.5 54.0 63.2
6/24/24 - 1300 61.6 60 47.8 53.1 SSW | 211 38.6 56.2 61.2 54.0 62.8
6/24/24 - 1200 60.6 57 45.5 51.6 SSW | 211 36.9 50.3 59.9 54.0 61.2
6/24/24 - 1100 58.5 60 44.9 50.5 SSW | 205 36.4 51.3 58.6 54.0 59.9
6/24/24 - 1000 57.9 51 40.0 47.8 SSW | 201 36.3 50.6 57.4 54.0 58.1
6/24/24 - 0900 56.7 49 37.8 46.4 SSW | 199 38.7 52.5 50.5 54.0 56.8
6/24/24 - 0800 55.1 54 38.9 46.2 SSW | 198 37.1 52.3 48.2 54.0 56.0
6/24/24 - 0700 54.9 53 37.9 45.6 SSW | 201 39.2 53.6 47.7 54.0 56.0
6/24/24 - 0600 54.6 51 37.0 45.1 SSW | 199 41.2 55.4 47.1 54.0 56.0
6/24/24 - 0500 54.4 51 36.7 44.9 SSW | 203 44.4 62.7 47.4 54.3 56.0
6/24/24 - 0400 54.6 51 37.1 45.2 SSW | 201 44.8 62.0 47.3 54.3 56.0
6/24/24 - 0300 55.1 47 35.2 44.6 SSW | 202 43.9 62.7 47.6 54.3 56.0
6/24/24 - 0200 54.7 42 32.2 43.2 SSW | 203 41.8 56.5 47.7 54.4 56.0
6/24/24 - 0100 55.4 34 27.6 41.9 SSW | 204 41.3 56.4 47.8 54.4 56.0
6/24/24 - 0000 54.8 42 32.2 43.3 SSW | 202 41.2 55.8 47.4 53.8 66.2
6/23/24 - 2300 54.3 54 38.0 45.4 SSW | 198 34.9 48.5 47.6 53.9 66.2
6/23/24 - 2200 54.7 53 38.0 45.6 SSW | 201 34.6 47.1 48.7 54.4 66.2
6/23/24 - 2100 55.4 53 38.4 46.1 SSW | 208 33.6 49.2 56.1 54.6 66.2
6/23/24 - 2000 59.0 50 40.2 48.3 SSW | 211 30.5 42.4 60.2 54.6 66.2
Max 62.9 60 47.8 53.1 - 44.8 62.7 62.2 54.6 66.2
Avg 57.6 51 39.4 47.5 - 37.5 52.6 54.3 - -
Min 54.3 34 27.6 41.9 - 25.3 36.9 47.1 53.8 56.0